sensor_id;sensor_type;location;lat;lon;timestamp;pressure;altitude;pressure_sealevel;temperature;humidity
9225;BME280;4647;48.072;11.616;2024-01-30T00:00:03;96659.47;;;-1.66;93.44
9225;BME280;4647;48.072;11.616;2024-01-30T00:02:33;96673.94;;;-1.72;93.56
9225;BME280;4647;48.072;11.616;2024-01-30T00:05:01;96670.50;;;-1.73;93.46
9225;BME280;4647;48.072;11.616;2024-01-30T00:07:30;96670.91;;;-1.79;93.83
9225;BME280;4647;48.072;11.616;2024-01-30T00:09:59;96664.53;;;-1.78;93.64
9225;BME280;4647;48.072;11.616;2024-01-30T00:12:27;96679.19;;;-1.81;93.78
9225;BME280;4647;48.072;11.616;2024-01-30T00:14:56;96669.34;;;-1.80;93.72
9225;BME280;4647;48.072;11.616;2024-01-30T00:17:27;96672.78;;;-1.80;93.77
9225;BME280;4647;48.072;11.616;2024-01-30T00:19:56;96678.78;;;-1.74;93.75
9225;BME280;4647;48.072;11.616;2024-01-30T00:22:24;96673.66;;;-1.71;93.46
9225;BME280;4647;48.072;11.616;2024-01-30T00:24:55;96673.84;;;-1.67;93.35
9225;BME280;4647;48.072;11.616;2024-01-30T00:27:24;96673.56;;;-1.79;93.71
9225;BME280;4647;48.072;11.616;2024-01-30T00:29:52;96676.94;;;-1.88;93.96
9225;BME280;4647;48.072;11.616;2024-01-30T00:32:20;96677.28;;;-1.94;93.92
9225;BME280;4647;48.072;11.616;2024-01-30T00:34:52;96682.91;;;-1.96;94.16
9225;BME280;4647;48.072;11.616;2024-01-30T00:37:20;96673.75;;;-1.90;93.98
9225;BME280;4647;48.072;11.616;2024-01-30T00:39:48;96675.25;;;-1.83;93.57
9225;BME280;4647;48.072;11.616;2024-01-30T00:42:17;96681.34;;;-1.83;93.56
9225;BME280;4647;48.072;11.616;2024-01-30T00:44:46;96677.00;;;-1.93;93.85
9225;BME280;4647;48.072;11.616;2024-01-30T00:47:15;96666.88;;;-1.91;93.73
9225;BME280;4647;48.072;11.616;2024-01-30T00:49:43;96667.47;;;-1.94;93.36
9225;BME280;4647;48.072;11.616;2024-01-30T00:52:14;96671.50;;;-1.96;93.64
9225;BME280;4647;48.072;11.616;2024-01-30T00:54:43;96675.44;;;-1.94;93.51
9225;BME280;4647;48.072;11.616;2024-01-30T00:57:11;96671.50;;;-1.96;93.37
9225;BME280;4647;48.072;11.616;2024-01-30T00:59:40;96672.19;;;-2.04;93.81
9225;BME280;4647;48.072;11.616;2024-01-30T01:02:08;96670.00;;;-2.16;94.26
9225;BME280;4647;48.072;11.616;2024-01-30T01:04:36;96676.59;;;-2.13;94.22
9225;BME280;4647;48.072;11.616;2024-01-30T01:07:05;96679.47;;;-2.10;93.90
9225;BME280;4647;48.072;11.616;2024-01-30T01:09:36;96672.00;;;-2.08;93.83
9225;BME280;4647;48.072;11.616;2024-01-30T01:12:05;96672.78;;;-2.07;93.73
9225;BME280;4647;48.072;11.616;2024-01-30T01:14:34;96677.38;;;-2.13;93.84
9225;BME280;4647;48.072;11.616;2024-01-30T01:17:03;96668.53;;;-2.22;94.79
9225;BME280;4647;48.072;11.616;2024-01-30T01:19:31;96671.47;;;-2.24;94.44
9225;BME280;4647;48.072;11.616;2024-01-30T01:22:00;96672.47;;;-2.20;93.89
9225;BME280;4647;48.072;11.616;2024-01-30T01:24:29;96680.31;;;-2.28;94.34
9225;BME280;4647;48.072;11.616;2024-01-30T01:27:01;96680.41;;;-2.33;94.31
9225;BME280;4647;48.072;11.616;2024-01-30T01:29:29;96676.75;;;-2.37;94.55
9225;BME280;4647;48.072;11.616;2024-01-30T01:31:58;96676.09;;;-2.29;94.41
9225;BME280;4647;48.072;11.616;2024-01-30T01:34:26;96680.13;;;-2.32;94.29
9225;BME280;4647;48.072;11.616;2024-01-30T01:36:55;96673.91;;;-2.41;94.68
9225;BME280;4647;48.072;11.616;2024-01-30T01:39:23;96673.69;;;-2.44;94.77
9225;BME280;4647;48.072;11.616;2024-01-30T01:41:51;96667.31;;;-2.43;94.97
9225;BME280;4647;48.072;11.616;2024-01-30T01:44:23;96669.38;;;-2.40;94.60
9225;BME280;4647;48.072;11.616;2024-01-30T01:46:51;96661.91;;;-2.38;94.56
9225;BME280;4647;48.072;11.616;2024-01-30T01:49:22;96669.50;;;-2.32;94.37
9225;BME280;4647;48.072;11.616;2024-01-30T01:51:55;96662.44;;;-2.36;94.23
9225;BME280;4647;48.072;11.616;2024-01-30T01:54:25;96669.31;;;-2.35;94.38
9225;BME280;4647;48.072;11.616;2024-01-30T01:56:54;96663.13;;;-2.31;94.14
9225;BME280;4647;48.072;11.616;2024-01-30T01:59:26;96665.53;;;-1.88;92.52
9225;BME280;4647;48.072;11.616;2024-01-30T02:01:55;96662.66;;;-2.05;92.71
9225;BME280;4647;48.072;11.616;2024-01-30T02:04:24;96659.97;;;-2.19;92.98
9225;BME280;4647;48.072;11.616;2024-01-30T02:06:52;96669.22;;;-2.30;93.69
9225;BME280;4647;48.072;11.616;2024-01-30T02:09:21;96663.00;;;-2.39;94.11
9225;BME280;4647;48.072;11.616;2024-01-30T02:11:49;96669.09;;;-2.39;93.86
9225;BME280;4647;48.072;11.616;2024-01-30T02:14:18;96662.78;;;-2.43;94.05
9225;BME280;4647;48.072;11.616;2024-01-30T02:16:49;96672.03;;;-2.40;94.10
9225;BME280;4647;48.072;11.616;2024-01-30T02:19:17;96667.91;;;-2.47;94.43
9225;BME280;4647;48.072;11.616;2024-01-30T02:21:49;96670.84;;;-2.48;94.24
9225;BME280;4647;48.072;11.616;2024-01-30T02:24:18;96671.63;;;-2.48;94.15
9225;BME280;4647;48.072;11.616;2024-01-30T02:26:46;96674.28;;;-2.48;94.21
9225;BME280;4647;48.072;11.616;2024-01-30T02:29:14;96672.00;;;-2.54;94.59
9225;BME280;4647;48.072;11.616;2024-01-30T02:31:43;96671.44;;;-2.37;94.47
9225;BME280;4647;48.072;11.616;2024-01-30T02:34:11;96675.38;;;-2.49;94.53
9225;BME280;4647;48.072;11.616;2024-01-30T02:36:42;96669.94;;;-2.57;94.43
9225;BME280;4647;48.072;11.616;2024-01-30T02:39:13;96666.28;;;-2.61;94.84
9225;BME280;4647;48.072;11.616;2024-01-30T02:41:41;96667.28;;;-2.57;95.04
9225;BME280;4647;48.072;11.616;2024-01-30T02:44:10;96665.63;;;-2.53;95.08
9225;BME280;4647;48.072;11.616;2024-01-30T02:46:38;96671.88;;;-2.63;95.37
9225;BME280;4647;48.072;11.616;2024-01-30T02:49:07;96663.13;;;-2.63;95.58
9225;BME280;4647;48.072;11.616;2024-01-30T02:51:35;96661.34;;;-2.68;95.59
9225;BME280;4647;48.072;11.616;2024-01-30T02:54:04;96663.06;;;-2.58;95.19
9225;BME280;4647;48.072;11.616;2024-01-30T02:56:35;96660.63;;;-2.55;95.21
9225;BME280;4647;48.072;11.616;2024-01-30T02:59:03;96660.47;;;-2.63;95.71
9225;BME280;4647;48.072;11.616;2024-01-30T03:01:31;96654.72;;;-2.52;95.69
9225;BME280;4647;48.072;11.616;2024-01-30T03:04:00;96655.91;;;-2.44;95.28
9225;BME280;4647;48.072;11.616;2024-01-30T03:06:28;96658.28;;;-2.42;94.95
9225;BME280;4647;48.072;11.616;2024-01-30T03:08:57;96652.56;;;-2.50;95.46
9225;BME280;4647;48.072;11.616;2024-01-30T03:11:25;96653.16;;;-2.53;95.33
9225;BME280;4647;48.072;11.616;2024-01-30T03:13:56;96641.34;;;-2.60;95.74
9225;BME280;4647;48.072;11.616;2024-01-30T03:16:25;96648.03;;;-2.49;95.37
9225;BME280;4647;48.072;11.616;2024-01-30T03:18:53;96642.75;;;-2.49;95.22
9225;BME280;4647;48.072;11.616;2024-01-30T03:21:22;96644.50;;;-2.44;95.30
9225;BME280;4647;48.072;11.616;2024-01-30T03:23:50;96644.50;;;-2.44;95.38
9225;BME280;4647;48.072;11.616;2024-01-30T03:26:19;96645.28;;;-2.44;95.19
9225;BME280;4647;48.072;11.616;2024-01-30T03:28:47;96638.41;;;-2.45;95.18
9225;BME280;4647;48.072;11.616;2024-01-30T03:31:18;96639.59;;;-2.51;95.76
9225;BME280;4647;48.072;11.616;2024-01-30T03:33:47;96640.97;;;-2.40;95.48
9225;BME280;4647;48.072;11.616;2024-01-30T03:36:15;96645.50;;;-2.40;95.22
9225;BME280;4647;48.072;11.616;2024-01-30T03:38:44;96641.28;;;-2.41;95.04
9225;BME280;4647;48.072;11.616;2024-01-30T03:41:12;96638.81;;;-2.52;95.28
9225;BME280;4647;48.072;11.616;2024-01-30T03:43:41;96634.28;;;-2.51;95.90
9225;BME280;4647;48.072;11.616;2024-01-30T03:46:11;96637.25;;;-2.39;95.11
9225;BME280;4647;48.072;11.616;2024-01-30T03:48:43;96641.16;;;-2.50;95.19
9225;BME280;4647;48.072;11.616;2024-01-30T03:51:11;96635.28;;;-2.47;95.21
9225;BME280;4647;48.072;11.616;2024-01-30T03:53:43;96642.84;;;-2.40;95.04
9225;BME280;4647;48.072;11.616;2024-01-30T03:56:11;96639.03;;;-2.34;94.81
9225;BME280;4647;48.072;11.616;2024-01-30T03:58:41;96643.16;;;-2.28;94.80
9225;BME280;4647;48.072;11.616;2024-01-30T04:01:13;96645.13;;;-2.20;94.58
9225;BME280;4647;48.072;11.616;2024-01-30T04:03:44;96638.28;;;-2.07;94.34
9225;BME280;4647;48.072;11.616;2024-01-30T04:06:13;96637.34;;;-2.17;94.05
9225;BME280;4647;48.072;11.616;2024-01-30T04:08:41;96646.69;;;-2.19;94.38
9225;BME280;4647;48.072;11.616;2024-01-30T04:11:09;96631.56;;;-2.32;94.85
9225;BME280;4647;48.072;11.616;2024-01-30T04:13:38;96637.75;;;-2.23;94.66
9225;BME280;4647;48.072;11.616;2024-01-30T04:16:08;96631.66;;;-2.24;94.46
9225;BME280;4647;48.072;11.616;2024-01-30T04:18:49;96641.41;;;-2.19;94.08
9225;BME280;4647;48.072;11.616;2024-01-30T04:21:18;96632.25;;;-2.13;93.98
9225;BME280;4647;48.072;11.616;2024-01-30T04:23:46;96634.41;;;-2.15;93.71
9225;BME280;4647;48.072;11.616;2024-01-30T04:26:15;96636.28;;;-2.16;93.75
9225;BME280;4647;48.072;11.616;2024-01-30T04:28:44;96632.75;;;-2.11;93.67
9225;BME280;4647;48.072;11.616;2024-01-30T04:31:13;96638.06;;;-2.11;93.34
9225;BME280;4647;48.072;11.616;2024-01-30T04:33:41;96636.19;;;-2.10;93.25
9225;BME280;4647;48.072;11.616;2024-01-30T04:36:12;96636.09;;;-2.05;93.12
9225;BME280;4647;48.072;11.616;2024-01-30T04:38:41;96630.31;;;-2.07;93.19
9225;BME280;4647;48.072;11.616;2024-01-30T04:41:09;96634.13;;;-2.13;93.34
9225;BME280;4647;48.072;11.616;2024-01-30T04:43:38;96636.88;;;-2.19;93.36
9225;BME280;4647;48.072;11.616;2024-01-30T04:46:06;96638.44;;;-2.18;93.28
9225;BME280;4647;48.072;11.616;2024-01-30T04:48:35;96634.69;;;-2.17;93.04
9225;BME280;4647;48.072;11.616;2024-01-30T04:51:04;96632.53;;;-2.14;93.03
9225;BME280;4647;48.072;11.616;2024-01-30T04:53:35;96633.06;;;-2.12;92.81
9225;BME280;4647;48.072;11.616;2024-01-30T04:56:06;96630.09;;;-2.11;93.00
9225;BME280;4647;48.072;11.616;2024-01-30T04:58:34;96632.25;;;-2.13;93.06
9225;BME280;4647;48.072;11.616;2024-01-30T05:01:03;96643.16;;;-2.14;93.03
9225;BME280;4647;48.072;11.616;2024-01-30T05:03:33;96634.63;;;-2.11;93.13
9225;BME280;4647;48.072;11.616;2024-01-30T05:06:02;96630.97;;;-2.16;93.04
9225;BME280;4647;48.072;11.616;2024-01-30T05:08:30;96639.41;;;-2.13;93.24
9225;BME280;4647;48.072;11.616;2024-01-30T05:11:05;96637.56;;;-2.13;92.98
9225;BME280;4647;48.072;11.616;2024-01-30T05:13:33;96645.44;;;-2.08;92.81
9225;BME280;4647;48.072;11.616;2024-01-30T05:16:02;96645.03;;;-2.01;92.64
9225;BME280;4647;48.072;11.616;2024-01-30T05:18:31;96650.66;;;-2.03;92.60
9225;BME280;4647;48.072;11.616;2024-01-30T05:21:00;96648.97;;;-1.99;92.48
9225;BME280;4647;48.072;11.616;2024-01-30T05:23:29;96654.38;;;-2.04;92.70
9225;BME280;4647;48.072;11.616;2024-01-30T05:25:59;96644.47;;;-2.12;92.94
9225;BME280;4647;48.072;11.616;2024-01-30T05:28:31;96642.78;;;-2.08;92.88
9225;BME280;4647;48.072;11.616;2024-01-30T05:31:00;96638.63;;;-2.14;92.77
9225;BME280;4647;48.072;11.616;2024-01-30T05:33:28;96645.75;;;-2.09;93.06
9225;BME280;4647;48.072;11.616;2024-01-30T05:35:56;96639.25;;;-2.03;92.63
9225;BME280;4647;48.072;11.616;2024-01-30T05:38:25;96645.84;;;-2.01;92.74
9225;BME280;4647;48.072;11.616;2024-01-30T05:40:54;96648.38;;;-1.96;92.61
9225;BME280;4647;48.072;11.616;2024-01-30T05:43:23;96648.38;;;-1.96;92.54
9225;BME280;4647;48.072;11.616;2024-01-30T05:45:54;96654.78;;;-1.97;92.29
9225;BME280;4647;48.072;11.616;2024-01-30T05:48:23;96646.13;;;-2.02;92.52
9225;BME280;4647;48.072;11.616;2024-01-30T05:50:51;96654.59;;;-2.00;92.70
9225;BME280;4647;48.072;11.616;2024-01-30T05:53:20;96658.91;;;-2.04;92.61
9225;BME280;4647;48.072;11.616;2024-01-30T05:55:49;96660.28;;;-2.07;92.65
9225;BME280;4647;48.072;11.616;2024-01-30T05:58:17;96657.84;;;-2.03;92.82
9225;BME280;4647;48.072;11.616;2024-01-30T06:00:46;96664.13;;;-1.99;92.35
9225;BME280;4647;48.072;11.616;2024-01-30T06:03:16;96661.16;;;-1.98;92.38
9225;BME280;4647;48.072;11.616;2024-01-30T06:05:45;96665.69;;;-1.98;92.12
9225;BME280;4647;48.072;11.616;2024-01-30T06:08:13;96671.19;;;-1.95;92.28
9225;BME280;4647;48.072;11.616;2024-01-30T06:10:42;96673.66;;;-1.98;91.93
9225;BME280;4647;48.072;11.616;2024-01-30T06:13:10;96663.16;;;-2.03;92.09
9225;BME280;4647;48.072;11.616;2024-01-30T06:15:39;96658.88;;;-2.18;92.52
9225;BME280;4647;48.072;11.616;2024-01-30T06:18:07;96666.75;;;-2.13;92.97
9225;BME280;4647;48.072;11.616;2024-01-30T06:20:38;96668.84;;;-2.10;92.71
9225;BME280;4647;48.072;11.616;2024-01-30T06:23:07;96670.50;;;-2.14;92.61
9225;BME280;4647;48.072;11.616;2024-01-30T06:25:38;96669.16;;;-2.11;92.48
9225;BME280;4647;48.072;11.616;2024-01-30T06:28:06;96673.44;;;-2.16;92.60
9225;BME280;4647;48.072;11.616;2024-01-30T06:30:35;96663.72;;;-2.20;92.76
9225;BME280;4647;48.072;11.616;2024-01-30T06:33:04;96671.88;;;-2.17;93.01
9225;BME280;4647;48.072;11.616;2024-01-30T06:35:32;96671.50;;;-2.10;92.57
9225;BME280;4647;48.072;11.616;2024-01-30T06:38:07;96673.47;;;-2.02;92.36
9225;BME280;4647;48.072;11.616;2024-01-30T06:40:36;96676.03;;;-1.97;92.26
9225;BME280;4647;48.072;11.616;2024-01-30T06:43:04;96673.97;;;-1.86;92.21
9225;BME280;4647;48.072;11.616;2024-01-30T06:45:33;96675.34;;;-1.89;92.06
9225;BME280;4647;48.072;11.616;2024-01-30T06:48:01;96676.03;;;-1.97;92.72
9225;BME280;4647;48.072;11.616;2024-01-30T06:50:30;96672.88;;;-1.99;93.05
9225;BME280;4647;48.072;11.616;2024-01-30T06:52:58;96677.59;;;-1.96;92.99
9225;BME280;4647;48.072;11.616;2024-01-30T06:55:29;96684.09;;;-1.88;93.15
9225;BME280;4647;48.072;11.616;2024-01-30T06:57:58;96686.38;;;-1.81;92.79
9225;BME280;4647;48.072;11.616;2024-01-30T07:00:27;96687.25;;;-1.72;92.39
9225;BME280;4647;48.072;11.616;2024-01-30T07:02:55;96691.09;;;-1.65;91.55
9225;BME280;4647;48.072;11.616;2024-01-30T07:05:24;96692.97;;;-1.65;92.06
9225;BME280;4647;48.072;11.616;2024-01-30T07:07:54;96697.88;;;-1.59;91.89
9225;BME280;4647;48.072;11.616;2024-01-30T07:10:23;96701.69;;;-1.51;91.72
9225;BME280;4647;48.072;11.616;2024-01-30T07:12:56;96699.22;;;-1.47;91.37
9225;BME280;4647;48.072;11.616;2024-01-30T07:15:24;96696.16;;;-1.27;90.79
9225;BME280;4647;48.072;11.616;2024-01-30T07:17:53;96690.72;;;-1.22;90.96
9225;BME280;4647;48.072;11.616;2024-01-30T07:20:21;96697.22;;;-1.14;90.76
9225;BME280;4647;48.072;11.616;2024-01-30T07:22:50;96694.84;;;-1.16;90.96
9225;BME280;4647;48.072;11.616;2024-01-30T07:25:18;96700.25;;;-1.07;90.83
9225;BME280;4647;48.072;11.616;2024-01-30T07:27:47;96711.44;;;-0.97;90.52
9225;BME280;4647;48.072;11.616;2024-01-30T07:30:20;96712.13;;;-0.91;90.53
9225;BME280;4647;48.072;11.616;2024-01-30T07:32:49;96700.75;;;-0.83;90.56
9225;BME280;4647;48.072;11.616;2024-01-30T07:35:18;96707.13;;;-0.70;89.98
9225;BME280;4647;48.072;11.616;2024-01-30T07:37:46;96701.84;;;-0.62;89.68
9225;BME280;4647;48.072;11.616;2024-01-30T07:40:15;96707.34;;;-0.58;89.54
9225;BME280;4647;48.072;11.616;2024-01-30T07:42:43;96707.19;;;-0.39;89.06
9225;BME280;4647;48.072;11.616;2024-01-30T07:45:12;96709.16;;;-0.22;88.15
9225;BME280;4647;48.072;11.616;2024-01-30T07:47:43;96699.97;;;-0.08;87.56
9225;BME280;4647;48.072;11.616;2024-01-30T07:50:14;96707.28;;;0.09;86.67
9225;BME280;4647;48.072;11.616;2024-01-30T07:52:44;96712.03;;;0.21;85.49
9225;BME280;4647;48.072;11.616;2024-01-30T07:55:16;96710.84;;;0.36;85.22
9225;BME280;4647;48.072;11.616;2024-01-30T07:57:46;96708.88;;;0.58;84.24
9225;BME280;4647;48.072;11.616;2024-01-30T08:00:16;96714.41;;;0.79;83.75
9225;BME280;4647;48.072;11.616;2024-01-30T08:02:47;96710.84;;;1.01;82.47
9225;BME280;4647;48.072;11.616;2024-01-30T08:05:19;96708.47;;;1.17;81.47
9225;BME280;4647;48.072;11.616;2024-01-30T08:07:48;96710.38;;;1.34;80.95
9225;BME280;4647;48.072;11.616;2024-01-30T08:10:17;96711.75;;;1.40;80.94
9225;BME280;4647;48.072;11.616;2024-01-30T08:12:46;96706.13;;;1.50;80.66
9225;BME280;4647;48.072;11.616;2024-01-30T08:15:15;96714.91;;;1.68;80.44
9225;BME280;4647;48.072;11.616;2024-01-30T08:17:43;96712.03;;;1.81;79.48
9225;BME280;4647;48.072;11.616;2024-01-30T08:20:17;96718.78;;;1.96;78.93
9225;BME280;4647;48.072;11.616;2024-01-30T08:22:46;96716.53;;;2.15;78.79
9225;BME280;4647;48.072;11.616;2024-01-30T08:25:14;96720.78;;;2.46;77.66
9225;BME280;4647;48.072;11.616;2024-01-30T08:27:44;96715.31;;;2.72;76.67
9225;BME280;4647;48.072;11.616;2024-01-30T08:30:16;96716.34;;;2.88;76.37
9225;BME280;4647;48.072;11.616;2024-01-30T08:32:44;96715.88;;;3.07;75.50
9225;BME280;4647;48.072;11.616;2024-01-30T08:35:15;96713.16;;;3.16;75.04
9225;BME280;4647;48.072;11.616;2024-01-30T08:37:44;96711.97;;;3.25;74.82
9225;BME280;4647;48.072;11.616;2024-01-30T08:40:12;96706.03;;;3.41;74.41
9225;BME280;4647;48.072;11.616;2024-01-30T08:42:41;96711.38;;;3.61;73.91
9225;BME280;4647;48.072;11.616;2024-01-30T08:45:12;96718.00;;;3.76;73.42
9225;BME280;4647;48.072;11.616;2024-01-30T08:47:41;96709.34;;;3.91;73.69
9225;BME280;4647;48.072;11.616;2024-01-30T08:50:10;96714.06;;;4.07;73.34
9225;BME280;4647;48.072;11.616;2024-01-30T08:52:42;96723.38;;;4.21;72.49
9225;BME280;4647;48.072;11.616;2024-01-30T08:55:13;96712.44;;;4.39;71.61
9225;BME280;4647;48.072;11.616;2024-01-30T08:57:42;96722.97;;;4.56;71.43
9225;BME280;4647;48.072;11.616;2024-01-30T09:00:12;96726.09;;;4.82;71.03
9225;BME280;4647;48.072;11.616;2024-01-30T09:02:40;96720.38;;;4.96;70.45
9225;BME280;4647;48.072;11.616;2024-01-30T09:05:09;96727.75;;;5.11;69.62
9225;BME280;4647;48.072;11.616;2024-01-30T09:07:38;96726.97;;;5.23;70.11
9225;BME280;4647;48.072;11.616;2024-01-30T09:10:09;96733.84;;;5.36;69.72
9225;BME280;4647;48.072;11.616;2024-01-30T09:12:37;96736.72;;;5.55;68.99
9225;BME280;4647;48.072;11.616;2024-01-30T09:15:07;96735.31;;;5.74;68.52
9225;BME280;4647;48.072;11.616;2024-01-30T09:17:38;96735.25;;;5.86;67.82
9225;BME280;4647;48.072;11.616;2024-01-30T09:20:07;96734.47;;;6.13;67.65
9225;BME280;4647;48.072;11.616;2024-01-30T09:22:36;96741.53;;;6.18;66.46
9225;BME280;4647;48.072;11.616;2024-01-30T09:25:05;96733.38;;;6.30;66.45
9225;BME280;4647;48.072;11.616;2024-01-30T09:27:36;96742.50;;;6.41;66.37
9225;BME280;4647;48.072;11.616;2024-01-30T09:30:07;96737.03;;;6.54;65.46
9225;BME280;4647;48.072;11.616;2024-01-30T09:32:35;96741.91;;;6.64;65.30
9225;BME280;4647;48.072;11.616;2024-01-30T09:35:04;96747.53;;;6.74;64.58
9225;BME280;4647;48.072;11.616;2024-01-30T09:37:35;96744.94;;;6.94;64.19
9225;BME280;4647;48.072;11.616;2024-01-30T09:40:05;96743.00;;;7.10;64.07
9225;BME280;4647;48.072;11.616;2024-01-30T09:42:36;96746.41;;;7.26;64.18
9225;BME280;4647;48.072;11.616;2024-01-30T09:45:06;96752.50;;;7.39;63.32
9225;BME280;4647;48.072;11.616;2024-01-30T09:47:39;96752.34;;;7.51;62.59
9225;BME280;4647;48.072;11.616;2024-01-30T09:50:09;96756.06;;;7.62;62.39
9225;BME280;4647;48.072;11.616;2024-01-30T09:52:38;96758.78;;;7.82;61.46
9225;BME280;4647;48.072;11.616;2024-01-30T09:55:08;96747.16;;;8.00;60.70
9225;BME280;4647;48.072;11.616;2024-01-30T09:57:41;96751.53;;;8.05;60.63
9225;BME280;4647;48.072;11.616;2024-01-30T10:00:11;96749.56;;;8.25;61.29
9225;BME280;4647;48.072;11.616;2024-01-30T10:02:40;96754.41;;;8.35;61.20
9225;BME280;4647;48.072;11.616;2024-01-30T10:05:11;96753.09;;;8.48;60.09
9225;BME280;4647;48.072;11.616;2024-01-30T10:07:50;96745.19;;;8.59;60.03
9225;BME280;4647;48.072;11.616;2024-01-30T10:10:21;96749.19;;;8.69;59.93
9225;BME280;4647;48.072;11.616;2024-01-30T10:12:53;96750.78;;;8.96;58.90
9225;BME280;4647;48.072;11.616;2024-01-30T10:15:22;96744.72;;;9.03;58.01
9225;BME280;4647;48.072;11.616;2024-01-30T10:17:50;96742.59;;;9.15;58.39
9225;BME280;4647;48.072;11.616;2024-01-30T10:20:19;96740.38;;;9.51;57.04
9225;BME280;4647;48.072;11.616;2024-01-30T10:22:49;96737.81;;;9.62;56.46
9225;BME280;4647;48.072;11.616;2024-01-30T10:25:18;96740.44;;;9.54;56.64
9225;BME280;4647;48.072;11.616;2024-01-30T10:27:46;96735.72;;;9.48;56.42
9225;BME280;4647;48.072;11.616;2024-01-30T10:30:18;96740.03;;;9.52;56.15
9225;BME280;4647;48.072;11.616;2024-01-30T10:32:46;96728.50;;;9.59;55.00
9225;BME280;4647;48.072;11.616;2024-01-30T10:35:15;96725.34;;;9.87;53.01
9225;BME280;4647;48.072;11.616;2024-01-30T10:37:47;96727.28;;;9.87;52.75
9225;BME280;4647;48.072;11.616;2024-01-30T10:40:16;96723.81;;;9.86;52.92
9225;BME280;4647;48.072;11.616;2024-01-30T10:42:45;96717.78;;;10.00;52.96
9225;BME280;4647;48.072;11.616;2024-01-30T10:45:17;96719.41;;;10.08;53.18
9225;BME280;4647;48.072;11.616;2024-01-30T10:47:49;96719.78;;;10.06;52.95
9225;BME280;4647;48.072;11.616;2024-01-30T10:50:18;96712.81;;;10.05;53.35
9225;BME280;4647;48.072;11.616;2024-01-30T10:52:47;96705.84;;;10.04;52.80
9225;BME280;4647;48.072;11.616;2024-01-30T10:55:16;96699.19;;;9.98;53.58
9225;BME280;4647;48.072;11.616;2024-01-30T10:57:45;96700.34;;;9.97;53.43
9225;BME280;4647;48.072;11.616;2024-01-30T11:00:17;96692.63;;;9.99;52.56
9225;BME280;4647;48.072;11.616;2024-01-30T11:02:51;96695.34;;;9.99;53.43
9225;BME280;4647;48.072;11.616;2024-01-30T11:05:24;96690.53;;;10.19;52.93
9225;BME280;4647;48.072;11.616;2024-01-30T11:07:53;96696.00;;;10.23;52.16
9225;BME280;4647;48.072;11.616;2024-01-30T11:10:24;96695.84;;;10.12;51.69
9225;BME280;4647;48.072;11.616;2024-01-30T11:12:53;96676.97;;;10.19;51.45
9225;BME280;4647;48.072;11.616;2024-01-30T11:15:24;96686.00;;;10.30;50.77
9225;BME280;4647;48.072;11.616;2024-01-30T11:17:52;96681.88;;;10.43;51.28
9225;BME280;4647;48.072;11.616;2024-01-30T11:20:22;96685.38;;;10.48;50.38
9225;BME280;4647;48.072;11.616;2024-01-30T11:22:52;96681.16;;;10.54;49.82
9225;BME280;4647;48.072;11.616;2024-01-30T11:25:22;96675.78;;;10.57;49.97
9225;BME280;4647;48.072;11.616;2024-01-30T11:27:51;96679.06;;;10.84;49.55
9225;BME280;4647;48.072;11.616;2024-01-30T11:30:27;96675.16;;;10.78;49.33
9225;BME280;4647;48.072;11.616;2024-01-30T11:33:00;96672.19;;;10.97;48.70
9225;BME280;4647;48.072;11.616;2024-01-30T11:35:26;96669.25;;;11.20;48.30
9225;BME280;4647;48.072;11.616;2024-01-30T11:37:57;96661.78;;;11.06;47.86
9225;BME280;4647;48.072;11.616;2024-01-30T11:40:27;96661.09;;;11.17;47.75
9225;BME280;4647;48.072;11.616;2024-01-30T11:42:58;96665.41;;;11.32;47.03
9225;BME280;4647;48.072;11.616;2024-01-30T11:45:30;96656.22;;;11.54;46.72
9225;BME280;4647;48.072;11.616;2024-01-30T11:47:59;96661.03;;;11.93;45.97
9225;BME280;4647;48.072;11.616;2024-01-30T11:50:29;96668.84;;;12.16;45.10
9225;BME280;4647;48.072;11.616;2024-01-30T11:52:58;96668.47;;;12.39;44.05
9225;BME280;4647;48.072;11.616;2024-01-30T11:55:29;96664.59;;;12.47;44.41
9225;BME280;4647;48.072;11.616;2024-01-30T11:58:01;96665.00;;;12.63;44.56
9225;BME280;4647;48.072;11.616;2024-01-30T12:00:33;96653.34;;;12.66;43.53
9225;BME280;4647;48.072;11.616;2024-01-30T12:03:01;96654.09;;;12.74;43.84
9225;BME280;4647;48.072;11.616;2024-01-30T12:05:32;96651.78;;;12.72;43.98
9225;BME280;4647;48.072;11.616;2024-01-30T12:08:01;96656.44;;;12.50;43.72
9225;BME280;4647;48.072;11.616;2024-01-30T12:10:30;96647.13;;;12.80;42.53
9225;BME280;4647;48.072;11.616;2024-01-30T12:12:58;96643.97;;;12.99;42.81
9225;BME280;4647;48.072;11.616;2024-01-30T12:15:28;96641.63;;;13.08;42.95
9225;BME280;4647;48.072;11.616;2024-01-30T12:18:07;96632.31;;;12.99;42.52
9225;BME280;4647;48.072;11.616;2024-01-30T12:20:36;96640.88;;;12.97;43.32
9225;BME280;4647;48.072;11.616;2024-01-30T12:23:04;96630.75;;;13.12;43.09
9225;BME280;4647;48.072;11.616;2024-01-30T12:25:33;96638.47;;;13.38;41.08
9225;BME280;4647;48.072;11.616;2024-01-30T12:28:02;96622.88;;;13.49;41.89
9225;BME280;4647;48.072;11.616;2024-01-30T12:30:31;96619.06;;;13.22;42.53
9225;BME280;4647;48.072;11.616;2024-01-30T12:33:00;96627.94;;;13.44;42.27
9225;BME280;4647;48.072;11.616;2024-01-30T12:35:34;96624.00;;;13.48;41.51
9225;BME280;4647;48.072;11.616;2024-01-30T12:38:02;96620.81;;;13.68;40.77
9225;BME280;4647;48.072;11.616;2024-01-30T12:40:33;96620.50;;;13.59;42.15
9225;BME280;4647;48.072;11.616;2024-01-30T12:43:02;96614.75;;;13.35;41.54
9225;BME280;4647;48.072;11.616;2024-01-30T12:45:30;96616.31;;;13.33;41.86
9225;BME280;4647;48.072;11.616;2024-01-30T12:47:59;96616.72;;;13.31;40.86
9225;BME280;4647;48.072;11.616;2024-01-30T12:50:27;96613.94;;;13.42;41.71
9225;BME280;4647;48.072;11.616;2024-01-30T12:52:59;96619.06;;;13.11;42.33
9225;BME280;4647;48.072;11.616;2024-01-30T12:55:27;96614.81;;;12.96;42.75
9225;BME280;4647;48.072;11.616;2024-01-30T12:57:55;96610.94;;;13.08;42.52
9225;BME280;4647;48.072;11.616;2024-01-30T13:00:24;96605.47;;;13.11;42.90
9225;BME280;4647;48.072;11.616;2024-01-30T13:02:52;96600.81;;;13.08;42.37
9225;BME280;4647;48.072;11.616;2024-01-30T13:05:21;96596.50;;;13.29;41.71
9225;BME280;4647;48.072;11.616;2024-01-30T13:07:50;96601.22;;;13.07;41.86
9225;BME280;4647;48.072;11.616;2024-01-30T13:10:21;96598.09;;;13.12;42.88
9225;BME280;4647;48.072;11.616;2024-01-30T13:12:50;96599.25;;;13.14;42.41
9225;BME280;4647;48.072;11.616;2024-01-30T13:15:18;96593.03;;;13.10;42.37
9225;BME280;4647;48.072;11.616;2024-01-30T13:17:48;96605.44;;;13.22;41.74
9225;BME280;4647;48.072;11.616;2024-01-30T13:20:18;96598.47;;;13.14;41.35
9225;BME280;4647;48.072;11.616;2024-01-30T13:22:47;96607.41;;;13.14;41.85